createdAt,value
2023-02-14T06:00:30.017Z,4.30
2023-02-14T06:15:42.908Z,3.10
2023-02-14T06:30:55.941Z,3.00
2023-02-14T06:41:05.501Z,2.70
2023-02-14T06:46:11.189Z,2.70
2023-02-14T07:01:24.453Z,2.70
2023-02-14T07:06:28.154Z,2.40
2023-02-14T07:11:31.916Z,2.80
2023-02-14T07:16:36.967Z,2.70
2023-02-14T07:21:40.692Z,2.70
2023-02-14T07:26:44.566Z,2.70
2023-02-14T07:31:49.714Z,2.70
2023-02-14T07:36:53.470Z,2.70
2023-02-14T07:41:57.146Z,2.70
2023-02-14T07:47:05.398Z,2.70
2023-02-14T07:52:09.326Z,2.80
2023-02-14T07:57:13.023Z,2.80
2023-02-14T08:02:18.110Z,2.90
2023-02-14T08:07:21.857Z,2.90
2023-02-14T08:12:54.908Z,3.10
2023-02-14T08:18:00.066Z,3.00
2023-02-14T08:23:03.790Z,3.00
2023-02-14T08:28:07.983Z,3.00
2023-02-14T08:33:13.356Z,3.20
2023-02-14T08:38:17.005Z,3.40
2023-02-14T08:43:20.664Z,3.50
2023-02-14T08:48:26.908Z,3.70
2023-02-14T08:53:30.782Z,3.90
2023-02-14T08:58:35.957Z,4.10
2023-02-14T09:03:41.087Z,4.30
2023-02-14T09:08:45.484Z,4.40
2023-02-14T09:13:50.764Z,4.70
2023-02-14T09:18:56.752Z,5.10
2023-02-14T09:24:00.740Z,5.60
2023-02-14T09:29:04.498Z,6.20
2023-02-14T09:34:27.247Z,7.10
2023-02-14T09:39:31.069Z,8.00
2023-02-14T09:44:38.469Z,9.00
2023-02-14T09:49:44.001Z,9.90
2023-02-14T09:54:52.376Z,10.90
2023-02-14T10:00:03.811Z,11.40
2023-02-14T10:05:15.386Z,11.90
2023-02-14T10:10:25.029Z,12.70
2023-02-14T10:15:33.554Z,13.50
2023-02-14T10:20:43.295Z,14.30
2023-02-14T10:25:55.159Z,15.00
2023-02-14T10:31:08.981Z,15.50
2023-02-14T10:36:22.378Z,16.20
2023-02-14T10:41:33.088Z,17.10
2023-02-14T10:46:44.229Z,17.80
2023-02-14T10:51:56.999Z,18.40
2023-02-14T10:57:03.898Z,19.10
2023-02-14T11:02:10.458Z,19.50
2023-02-14T11:07:16.434Z,19.30
2023-02-14T11:12:38.563Z,19.50
2023-02-14T11:17:43.246Z,20.00
2023-02-14T11:22:48.350Z,20.20
2023-02-14T11:27:58.796Z,20.40
2023-02-14T11:33:04.473Z,20.70
2023-02-14T11:38:30.529Z,21.00
2023-02-14T11:43:37.191Z,21.90
2023-02-14T11:48:40.919Z,22.10
2023-02-14T11:53:49.039Z,21.90
2023-02-14T11:58:56.541Z,21.20
2023-02-14T12:04:04.394Z,21.00
2023-02-14T12:09:28.126Z,20.90
2023-02-14T12:14:33.140Z,20.90
2023-02-14T12:19:43.467Z,20.70
2023-02-14T12:24:57.851Z,21.20
2023-02-14T12:30:07.859Z,21.60
2023-02-14T12:35:16.949Z,21.80
2023-02-14T12:40:28.844Z,22.10
2023-02-14T12:45:59.113Z,22.10
2023-02-14T12:51:11.667Z,22.20
2023-02-14T12:56:24.568Z,22.30
2023-02-14T13:01:44.447Z,22.90
2023-02-14T13:06:52.899Z,23.30
2023-02-14T13:12:08.961Z,23.50
2023-02-14T13:17:21.902Z,23.90
2023-02-14T13:22:29.960Z,24.40
2023-02-14T13:27:40.112Z,24.70
2023-02-14T13:32:46.821Z,24.80
2023-02-14T13:37:54.486Z,24.80
2023-02-14T13:43:00.458Z,24.60
2023-02-14T13:48:07.053Z,24.50
2023-02-14T13:53:13.720Z,23.50
2023-02-14T13:58:21.811Z,23.40
2023-02-14T14:03:55.725Z,23.70
2023-02-14T14:08:59.496Z,23.50
2023-02-14T14:14:27.445Z,23.60
2023-02-14T14:19:39.822Z,23.50
2023-02-14T14:24:57.065Z,23.20
2023-02-14T14:30:04.168Z,23.20
2023-02-14T14:35:18.001Z,23.30
2023-02-14T14:40:26.631Z,22.60
2023-02-14T14:45:32.720Z,22.10
2023-02-14T14:50:37.655Z,22.10
2023-02-14T14:55:51.933Z,22.30
2023-02-14T15:00:57.129Z,22.10
2023-02-14T15:06:08.276Z,22.10
2023-02-14T15:11:36.406Z,22.10
2023-02-14T15:16:48.477Z,21.80
2023-02-14T15:21:52.330Z,21.60
2023-02-14T15:26:56.516Z,21.40
2023-02-14T15:32:03.732Z,21.00
2023-02-14T15:37:08.361Z,20.70
2023-02-14T15:42:25.742Z,20.40
2023-02-14T15:47:30.928Z,20.00
2023-02-14T15:52:34.637Z,19.60
2023-02-14T15:57:39.050Z,19.30
2023-02-14T16:02:47.943Z,19.10
2023-02-14T16:07:59.652Z,18.80
2023-02-14T16:13:06.553Z,18.60
2023-02-14T16:18:32.790Z,18.40
2023-02-14T16:23:37.527Z,18.10
2023-02-14T16:28:43.300Z,17.80
2023-02-14T16:33:48.575Z,17.50
2023-02-14T16:38:52.997Z,17.20
2023-02-14T16:43:57.415Z,16.90
2023-02-14T16:49:02.838Z,16.70
2023-02-14T16:54:09.954Z,16.50
2023-02-14T16:59:13.640Z,16.30
2023-02-14T17:04:18.690Z,16.10
2023-02-14T17:09:27.312Z,16.00
2023-02-14T17:14:36.931Z,15.80
2023-02-14T17:19:42.073Z,15.60
2023-02-14T17:24:45.787Z,15.50
2023-02-14T17:29:51.539Z,15.30
2023-02-14T17:34:57.257Z,15.10
2023-02-14T17:40:01.016Z,14.90
2023-02-14T17:45:06.274Z,14.70
2023-02-14T17:50:11.862Z,14.50
2023-02-14T17:55:16.840Z,14.40
2023-02-14T18:00:22.360Z,14.20
2023-02-14T18:05:27.398Z,14.10
2023-02-14T18:10:31.088Z,14.00
2023-02-14T18:15:35.081Z,13.90
2023-02-14T18:20:40.084Z,13.70
2023-02-14T18:25:50.752Z,13.60
2023-02-14T18:30:57.162Z,13.40
2023-02-14T18:36:04.877Z,13.30
2023-02-14T18:41:11.384Z,13.20
2023-02-14T18:46:16.808Z,13.10
2023-02-14T18:51:24.713Z,12.90
2023-02-14T18:56:30.818Z,12.80
2023-02-14T19:01:36.849Z,12.70
2023-02-14T19:06:43.129Z,12.60
2023-02-14T19:11:46.954Z,12.50
2023-02-14T19:16:53.426Z,12.40
2023-02-14T19:21:59.840Z,12.30
2023-02-14T19:27:03.795Z,12.30
2023-02-14T19:32:07.700Z,12.20
2023-02-14T19:37:13.139Z,12.10
2023-02-14T19:42:16.816Z,12.10
2023-02-14T19:47:33.581Z,12.00
2023-02-14T19:52:46.454Z,12.00
2023-02-14T19:57:50.399Z,12.00
2023-02-14T20:02:54.260Z,12.70
2023-02-14T20:08:01.255Z,11.80
2023-02-14T20:13:05.061Z,11.70
2023-02-14T20:18:08.892Z,11.60
2023-02-14T20:23:13.990Z,11.50
2023-02-14T20:28:17.748Z,11.50
2023-02-14T20:33:21.402Z,11.40
2023-02-14T20:38:26.437Z,11.30
2023-02-14T20:43:30.145Z,11.20
2023-02-14T20:48:35.418Z,11.20
2023-02-14T20:53:41.230Z,11.10
2023-02-14T20:58:45.098Z,10.90
2023-02-14T21:03:51.527Z,10.80
2023-02-14T21:08:57.180Z,10.70
2023-02-14T21:14:02.557Z,10.70
2023-02-14T21:19:06.204Z,10.60
2023-02-14T21:24:13.183Z,10.50
2023-02-14T21:29:16.888Z,10.50
2023-02-14T21:34:20.617Z,10.30
2023-02-14T21:39:27.859Z,10.10
2023-02-14T21:44:57.912Z,10.00
2023-02-14T21:50:19.188Z,9.80
2023-02-14T21:55:24.326Z,9.60
2023-02-14T22:00:27.947Z,9.40
2023-02-14T22:05:34.704Z,9.20
2023-02-14T22:10:41.214Z,9.10
2023-02-14T22:15:44.863Z,8.90
2023-02-14T22:20:48.503Z,8.70
2023-02-14T22:25:53.477Z,8.60
2023-02-14T22:31:01.161Z,8.50
2023-02-14T22:36:05.777Z,8.40
2023-02-14T22:41:11.806Z,8.30
2023-02-14T22:46:18.080Z,8.10
2023-02-14T22:51:23.618Z,8.00
2023-02-14T22:56:31.067Z,7.90
2023-02-14T23:01:36.403Z,7.80
2023-02-14T23:06:40.141Z,7.70
2023-02-14T23:11:47.207Z,7.60
2023-02-14T23:17:20.518Z,7.50
2023-02-14T23:22:26.055Z,7.50
2023-02-14T23:27:34.742Z,7.40
